Time;durP1;ratioP1;P1;durP2;ratioP2;P2;SDS_P1;SDS_P2;PMS_P1;PMS_P2;Temp;Humidity;BMP_temperature;BMP_pressure;BME280_temperature;BME280_humidity;BME280_pressure;Samples;Min_cycle;Max_cycle;Signal;HPM_P1;HPM_P2
2023/02/03 00:02:20;;;;;;;10.20;2.00;;;8.70;99.90;;;;;;5059846;28;20049;-92
2023/02/03 00:04:48;;;;;;;11.93;1.63;;;8.70;99.90;;;;;;5057380;28;20045;-93
2023/02/03 00:07:14;;;;;;;8.27;1.90;;;8.80;99.90;;;;;;5070261;28;20052;-92
2023/02/03 00:09:40;;;;;;;9.23;1.50;;;8.70;99.90;;;;;;5073775;28;20040;-92
2023/02/03 00:12:06;;;;;;;9.48;1.70;;;8.70;99.90;;;;;;5062902;28;20561;-92
2023/02/03 00:14:32;;;;;;;9.00;1.67;;;8.80;99.90;;;;;;5061866;28;20053;-92
2023/02/03 00:17:00;;;;;;;8.27;1.40;;;8.80;99.90;;;;;;5053589;28;20048;-91
2023/02/03 00:19:26;;;;;;;11.10;1.60;;;8.80;99.90;;;;;;5052623;28;20044;-92
2023/02/03 00:21:52;;;;;;;15.77;1.80;;;8.80;99.90;;;;;;5055215;28;20040;-92
2023/02/03 00:24:19;;;;;;;7.75;1.70;;;8.80;99.90;;;;;;5068299;28;20045;-92
2023/02/03 00:26:45;;;;;;;8.40;1.45;;;8.80;99.90;;;;;;5053418;28;20087;-93
2023/02/03 00:29:11;;;;;;;9.23;1.52;;;8.80;99.90;;;;;;5052643;28;20045;-91
2023/02/03 00:31:36;;;;;;;9.35;1.50;;;8.80;99.90;;;;;;5060624;28;20504;-92
2023/02/03 00:34:02;;;;;;;8.02;1.55;;;8.80;99.90;;;;;;5064240;28;20066;-93
2023/02/03 00:36:27;;;;;;;10.75;1.63;;;8.80;99.90;;;;;;5056797;28;20393;-92
2023/02/03 00:38:53;;;;;;;16.35;1.90;;;8.70;99.90;;;;;;5053374;28;20037;-92
2023/02/03 00:41:20;;;;;;;7.63;1.60;;;8.70;99.90;;;;;;5063852;28;20049;-92
2023/02/03 00:43:46;;;;;;;12.02;2.08;;;8.70;99.90;;;;;;5054049;28;20037;-92
2023/02/03 00:46:12;;;;;;;15.07;2.03;;;8.70;99.90;;;;;;5052614;28;20048;-91
2023/02/03 00:48:38;;;;;;;10.55;1.85;;;8.70;99.90;;;;;;5062933;28;20052;-91
2023/02/03 00:51:04;;;;;;;12.85;1.85;;;8.70;99.90;;;;;;5057348;28;20048;-90
2023/02/03 00:53:30;;;;;;;9.18;1.67;;;8.70;99.90;;;;;;5063435;28;20045;-92
2023/02/03 00:55:55;;;;;;;11.60;1.92;;;8.70;99.90;;;;;;5056556;28;20079;-92
2023/02/03 00:58:21;;;;;;;11.02;1.80;;;8.70;99.90;;;;;;5055767;28;20556;-90
2023/02/03 01:00:47;;;;;;;9.27;2.00;;;8.70;99.90;;;;;;5060806;28;20102;-91
2023/02/03 01:03:12;;;;;;;12.05;2.05;;;8.70;99.90;;;;;;5059781;28;20081;-90
2023/02/03 01:05:38;;;;;;;9.98;1.73;;;8.70;99.90;;;;;;5056422;28;20053;-91
2023/02/03 01:08:04;;;;;;;9.85;2.05;;;8.70;99.90;;;;;;5066949;28;20066;-92
2023/02/03 01:10:30;;;;;;;13.68;2.50;;;8.70;99.90;;;;;;5062573;28;20037;-92
2023/02/03 01:12:56;;;;;;;10.73;2.28;;;8.70;99.90;;;;;;5055630;28;20127;-90
2023/02/03 01:15:21;;;;;;;11.70;2.03;;;8.70;99.90;;;;;;5055843;28;20067;-92
2023/02/03 01:17:47;;;;;;;13.95;3.03;;;8.70;99.90;;;;;;5055583;28;20500;-91
2023/02/03 01:20:15;;;;;;;10.52;2.33;;;8.70;99.90;;;;;;5073623;23;20088;-91
2023/02/03 01:22:40;;;;;;;20.42;2.92;;;8.70;99.90;;;;;;5059728;22;20049;-92
2023/02/03 01:25:07;;;;;;;10.23;1.95;;;8.70;99.90;;;;;;5046237;28;20030;-91
2023/02/03 01:27:32;;;;;;;11.57;2.13;;;8.70;99.90;;;;;;5038837;28;20052;-91
2023/02/03 01:30:04;;;;;;;14.27;2.40;;;8.70;99.90;;;;;;5048170;28;20030;-92
2023/02/03 01:32:29;;;;;;;14.20;2.80;;;8.70;99.90;;;;;;5039348;28;20056;-92
2023/02/03 01:34:55;;;;;;;13.25;2.47;;;8.70;99.90;;;;;;5054052;28;20045;-92
2023/02/03 01:37:26;;;;;;;10.45;1.98;;;8.70;99.90;;;;;;5070596;23;20052;-92
2023/02/03 01:39:52;;;;;;;10.95;2.20;;;8.80;99.90;;;;;;5076373;23;20040;-93
2023/02/03 01:42:17;;;;;;;11.95;2.33;;;8.70;99.90;;;;;;5054982;28;20397;-91
2023/02/03 01:44:50;;;;;;;10.68;2.15;;;8.70;99.90;;;;;;5054651;28;20037;-91
2023/02/03 01:47:22;;;;;;;13.60;2.08;;;8.70;99.90;;;;;;5054551;28;20056;-91
2023/02/03 01:50:01;;;;;;;13.15;2.40;;;8.70;99.90;;;;;;5056343;28;20083;-92
2023/02/03 01:52:27;;;;;;;14.40;2.10;;;8.70;99.90;;;;;;5054871;28;20060;-91
2023/02/03 01:55:02;;;;;;;13.75;2.42;;;8.70;99.90;;;;;;5054538;28;20404;-92
2023/02/03 01:57:43;;;;;;;12.30;2.33;;;8.70;99.90;;;;;;5052803;28;20040;-93
2023/02/03 02:00:09;;;;;;;8.30;1.95;;;8.70;99.90;;;;;;5055784;28;20041;-92
2023/02/03 02:02:35;;;;;;;14.02;2.30;;;8.70;99.90;;;;;;5054182;28;20052;-92
2023/02/03 02:05:13;;;;;;;11.85;2.00;;;8.70;99.90;;;;;;5054849;28;20037;-92
2023/02/03 02:07:57;;;;;;;11.93;2.35;;;8.70;99.90;;;;;;5054391;28;20084;-92
2023/02/03 02:10:48;;;;;;;13.38;2.20;;;8.70;99.90;;;;;;5041329;28;20041;-91
2023/02/03 02:13:39;;;;;;;13.95;2.45;;;8.70;99.90;;;;;;5054616;28;20152;-91
2023/02/03 02:16:22;;;;;;;10.48;1.90;;;8.70;99.90;;;;;;5063851;23;20049;-91
2023/02/03 02:18:51;;;;;;;16.33;2.13;;;8.70;99.90;;;;;;5056122;28;20053;-92
2023/02/03 02:24:10;;;;;;;11.15;2.28;;;8.70;99.90;;;;;;5034051;28;20049;-92
2023/02/03 02:29:34;;;;;;;10.40;2.10;;;8.70;99.90;;;;;;5044598;23;20162;-93
2023/02/03 02:32:13;;;;;;;10.77;2.03;;;8.70;99.90;;;;;;5035029;28;20095;-89
2023/02/03 02:34:45;;;;;;;14.15;2.30;;;8.70;99.90;;;;;;5035694;28;20116;-91
2023/02/03 02:37:21;;;;;;;12.30;2.45;;;8.70;99.90;;;;;;5038415;28;20052;-93
2023/02/03 02:39:52;;;;;;;10.82;1.95;;;8.70;99.90;;;;;;5054118;28;20044;-92
2023/02/03 02:42:41;;;;;;;11.63;2.03;;;8.70;99.90;;;;;;5039587;28;20077;-92
2023/02/03 02:45:16;;;;;;;11.88;2.10;;;8.70;99.90;;;;;;5019448;28;20041;-92
2023/02/03 02:47:43;;;;;;;12.82;2.33;;;8.70;99.90;;;;;;5035289;28;20089;-92
2023/02/03 02:50:17;;;;;;;11.00;1.88;;;8.70;99.90;;;;;;5034649;28;20064;-93
2023/02/03 02:52:47;;;;;;;13.45;2.20;;;8.70;99.90;;;;;;5034171;28;20056;-92
2023/02/03 02:55:26;;;;;;;13.65;2.33;;;8.70;99.90;;;;;;5033901;28;20505;-92
2023/02/03 02:58:06;;;;;;;13.10;1.98;;;8.70;99.90;;;;;;5034053;28;20107;-92
2023/02/03 03:00:34;;;;;;;17.13;2.30;;;8.70;99.90;;;;;;5034815;28;20037;-92
2023/02/03 03:03:23;;;;;;;10.07;1.92;;;8.80;99.90;;;;;;5033699;28;20052;-92
2023/02/03 03:05:58;;;;;;;12.02;2.10;;;8.70;99.90;;;;;;5028603;28;20071;-92
2023/02/03 03:08:47;;;;;;;12.48;2.10;;;8.70;99.90;;;;;;5035033;28;20060;-91
2023/02/03 03:11:13;;;;;;;15.60;2.65;;;8.70;99.90;;;;;;5032725;28;20050;-91
2023/02/03 03:13:46;;;;;;;12.52;2.17;;;8.70;99.90;;;;;;5035160;28;20444;-92
2023/02/03 03:16:13;;;;;;;12.15;2.20;;;8.70;99.90;;;;;;5034635;28;20111;-93
2023/02/03 03:18:44;;;;;;;15.68;2.42;;;8.70;99.90;;;;;;5034629;28;20120;-92
2023/02/03 03:21:14;;;;;;;12.15;2.65;;;8.70;99.90;;;;;;5033418;28;20056;-92
2023/02/03 03:23:43;;;;;;;14.85;2.05;;;8.70;99.90;;;;;;5035008;28;20037;-93
2023/02/03 03:26:30;;;;;;;13.20;2.35;;;8.70;99.90;;;;;;5034734;28;20112;-93
2023/02/03 03:29:16;;;;;;;12.05;2.03;;;8.70;99.90;;;;;;5033379;28;20064;-92
2023/02/03 03:31:43;;;;;;;15.90;2.22;;;8.70;99.90;;;;;;5034705;28;20128;-92
2023/02/03 03:34:10;;;;;;;13.07;2.28;;;8.70;99.90;;;;;;5026885;28;20413;-93
2023/02/03 03:37:20;;;;;;;17.00;2.28;;;8.70;99.90;;;;;;5032842;28;20037;-91
2023/02/03 03:39:46;;;;;;;11.40;1.92;;;8.70;99.90;;;;;;5023954;28;20064;-92
2023/02/03 03:42:31;;;;;;;11.75;2.42;;;8.70;99.90;;;;;;5032623;28;20155;-89
2023/02/03 03:45:06;;;;;;;10.25;1.98;;;8.70;99.90;;;;;;5022964;28;20432;-93
2023/02/03 03:47:43;;;;;;;12.82;2.20;;;8.80;99.90;;;;;;5033684;28;20045;-93
2023/02/03 03:50:17;;;;;;;12.75;2.53;;;8.70;99.90;;;;;;5033271;28;20456;-92
2023/02/03 03:52:45;;;;;;;12.75;2.15;;;8.70;99.90;;;;;;5034096;28;20057;-91
2023/02/03 03:55:13;;;;;;;16.38;2.55;;;8.80;99.90;;;;;;5034028;28;20053;-92
2023/02/03 03:57:44;;;;;;;13.57;2.30;;;8.80;99.90;;;;;;5033162;28;20404;-93
2023/02/03 04:00:13;;;;;;;12.88;2.08;;;8.80;99.90;;;;;;5033471;28;20052;-92
2023/02/03 04:02:41;;;;;;;9.43;2.10;;;8.80;99.90;;;;;;5033901;28;20041;-92
2023/02/03 04:05:09;;;;;;;14.80;2.22;;;8.80;99.90;;;;;;5018678;28;20049;-93
2023/02/03 04:07:43;;;;;;;12.18;2.10;;;8.80;99.90;;;;;;5012770;28;20054;-92
2023/02/03 04:10:29;;;;;;;12.88;2.00;;;8.80;99.90;;;;;;5013468;28;20038;-91
2023/02/03 04:12:54;;;;;;;10.68;1.92;;;8.80;99.90;;;;;;5034499;28;20485;-93
2023/02/03 04:15:20;;;;;;;9.98;2.03;;;8.80;99.90;;;;;;5033071;28;20045;-92
2023/02/03 04:17:49;;;;;;;13.55;2.40;;;8.90;99.90;;;;;;5034197;28;20037;-93
2023/02/03 04:20:15;;;;;;;15.40;2.47;;;8.80;99.90;;;;;;5032943;28;20041;-93
2023/02/03 04:22:41;;;;;;;17.83;2.55;;;8.90;99.90;;;;;;5032782;28;20042;-93
2023/02/03 04:25:07;;;;;;;14.77;2.15;;;8.90;99.90;;;;;;5032705;28;20047;-94
2023/02/03 04:27:34;;;;;;;15.05;2.42;;;8.80;99.90;;;;;;5031852;28;20057;-92
2023/02/03 04:29:59;;;;;;;11.75;1.83;;;8.80;99.90;;;;;;5031025;28;20049;-92
2023/02/03 04:32:25;;;;;;;14.60;2.28;;;8.80;99.90;;;;;;5033686;28;20409;-93
2023/02/03 04:34:51;;;;;;;13.07;2.47;;;8.80;99.90;;;;;;5032352;28;20106;-93
2023/02/03 04:37:16;;;;;;;9.82;1.80;;;8.80;99.90;;;;;;5033611;28;20037;-93
2023/02/03 04:39:42;;;;;;;11.15;1.98;;;8.80;99.90;;;;;;5033635;28;20037;-94
2023/02/03 04:42:08;;;;;;;18.67;2.50;;;8.80;99.90;;;;;;5034441;28;20132;-93
2023/02/03 04:44:33;;;;;;;13.73;2.10;;;8.90;99.90;;;;;;5034102;28;20137;-93
2023/02/03 04:46:59;;;;;;;14.30;2.20;;;8.80;99.90;;;;;;5033482;28;20049;-92
2023/02/03 04:49:25;;;;;;;12.65;2.30;;;8.80;99.90;;;;;;5033897;28;20045;-93
2023/02/03 04:51:51;;;;;;;14.13;2.22;;;8.90;99.90;;;;;;5033105;28;20033;-93
2023/02/03 04:54:16;;;;;;;16.50;2.53;;;8.80;99.90;;;;;;5033234;28;20140;-93
2023/02/03 04:56:42;;;;;;;12.35;2.33;;;8.80;99.90;;;;;;5032297;28;20080;-93
2023/02/03 04:59:08;;;;;;;18.77;2.47;;;8.80;99.90;;;;;;5034032;28;20069;-92
2023/02/03 05:01:33;;;;;;;11.68;2.42;;;8.80;99.90;;;;;;5031715;28;20041;-93
2023/02/03 05:03:59;;;;;;;17.60;2.33;;;8.80;99.90;;;;;;5032658;28;20052;-93
2023/02/03 05:06:27;;;;;;;13.00;2.40;;;8.80;99.90;;;;;;5032712;28;20444;-94
2023/02/03 05:08:53;;;;;;;13.23;2.42;;;8.80;99.90;;;;;;5032734;28;20087;-93
2023/02/03 05:11:20;;;;;;;15.27;2.30;;;8.80;99.90;;;;;;5028741;28;20494;-92
2023/02/03 05:13:45;;;;;;;13.60;1.90;;;8.80;99.90;;;;;;5030112;28;20117;-92
2023/02/03 05:16:11;;;;;;;13.65;2.28;;;8.80;99.90;;;;;;5034001;28;20057;-93
2023/02/03 05:18:37;;;;;;;12.68;2.20;;;8.80;99.90;;;;;;5032527;28;20042;-92
2023/02/03 05:21:02;;;;;;;14.77;2.33;;;8.80;99.90;;;;;;5031984;28;20128;-93
2023/02/03 05:23:28;;;;;;;13.68;2.53;;;8.80;99.90;;;;;;5032653;28;20386;-93
2023/02/03 05:25:54;;;;;;;17.17;2.53;;;8.80;99.90;;;;;;5032203;28;20040;-93
2023/02/03 05:28:19;;;;;;;11.25;1.85;;;8.80;99.90;;;;;;5031754;28;20119;-93
2023/02/03 05:30:45;;;;;;;11.25;2.45;;;8.80;99.90;;;;;;5033199;28;20166;-93
2023/02/03 05:33:14;;;;;;;13.38;2.22;;;8.80;99.90;;;;;;5032769;28;20440;-91
2023/02/03 05:35:40;;;;;;;13.73;2.30;;;8.80;99.90;;;;;;5036693;28;20079;-91
2023/02/03 05:38:09;;;;;;;15.18;2.72;;;8.80;99.90;;;;;;5036262;28;20417;-93
2023/02/03 05:43:25;;;;;;;11.63;2.10;;;8.80;99.90;;;;;;5024821;28;20088;-93
2023/02/03 05:45:51;;;;;;;15.82;2.53;;;8.80;99.90;;;;;;5036247;28;20092;-92
2023/02/03 05:48:20;;;;;;;16.80;2.33;;;8.80;99.90;;;;;;5035509;28;20049;-91
2023/02/03 05:50:49;;;;;;;11.80;2.20;;;8.80;99.90;;;;;;5033189;28;20363;-96
2023/02/03 05:53:38;;;;;;;12.70;1.98;;;8.80;99.90;;;;;;5333363;22;20073;-95
2023/02/03 05:56:07;;;;;;;13.35;2.40;;;8.90;99.90;;;;;;5034057;28;20045;-89
2023/02/03 05:58:59;;;;;;;14.65;2.38;;;8.90;99.90;;;;;;4998076;28;20060;-90
2023/02/03 06:01:28;;;;;;;14.70;2.67;;;8.90;99.90;;;;;;5031469;28;20046;-94
2023/02/03 06:04:02;;;;;;;14.75;2.75;;;8.90;99.90;;;;;;5018674;28;20046;-91
2023/02/03 06:06:34;;;;;;;12.20;2.00;;;9.00;99.90;;;;;;5050195;28;20085;-93
2023/02/03 06:09:07;;;;;;;13.02;2.20;;;9.00;99.90;;;;;;5033862;28;20037;-92
2023/02/03 06:11:34;;;;;;;14.80;2.33;;;9.00;99.90;;;;;;5034075;28;20045;-90
2023/02/03 06:14:01;;;;;;;14.23;2.50;;;9.00;99.90;;;;;;5017351;28;20042;-92
2023/02/03 06:16:29;;;;;;;13.27;2.38;;;9.10;99.90;;;;;;5031991;28;20053;-91
2023/02/03 06:19:04;;;;;;;13.05;2.47;;;9.10;99.90;;;;;;5034642;28;20041;-91
2023/02/03 06:21:35;;;;;;;14.30;2.47;;;9.00;99.90;;;;;;5032712;28;20126;-92
2023/02/03 06:24:07;;;;;;;14.88;2.67;;;9.10;99.90;;;;;;5033313;28;20037;-92
2023/02/03 06:26:32;;;;;;;14.38;2.58;;;9.10;99.90;;;;;;5015316;28;20058;-91
2023/02/03 06:29:01;;;;;;;18.20;2.78;;;9.10;99.90;;;;;;5033351;28;20056;-92
2023/02/03 06:31:29;;;;;;;16.00;2.42;;;9.20;99.90;;;;;;5014418;28;20505;-92
2023/02/03 06:33:56;;;;;;;14.40;2.50;;;9.20;99.90;;;;;;5026404;28;20631;-90
2023/02/03 06:36:43;;;;;;;12.18;2.75;;;9.10;99.90;;;;;;5034139;28;20049;-89
2023/02/03 06:39:12;;;;;;;17.23;2.50;;;9.10;99.90;;;;;;5030381;28;20494;-91
2023/02/03 06:41:41;;;;;;;15.77;2.70;;;9.10;99.90;;;;;;5033719;28;20120;-92
2023/02/03 06:44:12;;;;;;;17.48;3.13;;;9.10;99.90;;;;;;5034059;28;20508;-91
2023/02/03 06:46:38;;;;;;;13.52;2.33;;;9.20;99.90;;;;;;5032751;28;20049;-91
2023/02/03 06:49:13;;;;;;;16.83;2.70;;;9.20;99.90;;;;;;5031719;28;20048;-90
2023/02/03 06:51:38;;;;;;;20.50;2.70;;;9.20;99.90;;;;;;5033525;28;20397;-92
2023/02/03 06:54:04;;;;;;;16.30;2.72;;;9.20;99.90;;;;;;5031968;28;20053;-91
2023/02/03 06:56:32;;;;;;;15.80;2.42;;;9.20;99.90;;;;;;5047275;28;20081;-91
2023/02/03 06:59:00;;;;;;;16.77;3.03;;;9.20;99.90;;;;;;5032071;28;20481;-90
2023/02/03 07:01:29;;;;;;;15.88;3.03;;;9.20;99.90;;;;;;5032688;28;20073;-91
2023/02/03 07:04:02;;;;;;;18.88;3.15;;;9.20;99.90;;;;;;5034694;28;20497;-91
2023/02/03 07:06:30;;;;;;;18.90;3.50;;;9.20;99.90;;;;;;5029045;28;20493;-91
2023/02/03 07:08:57;;;;;;;14.20;2.65;;;9.20;99.90;;;;;;5033208;28;20133;-91
2023/02/03 07:11:23;;;;;;;16.25;2.75;;;9.20;99.90;;;;;;5032455;28;20041;-93
2023/02/03 07:13:49;;;;;;;19.90;3.15;;;9.20;99.90;;;;;;5015716;28;20053;-90
2023/02/03 07:16:15;;;;;;;18.27;3.38;;;9.20;99.90;;;;;;5031901;28;20045;-90
2023/02/03 07:18:41;;;;;;;22.25;3.13;;;9.20;99.90;;;;;;5033586;28;20059;-92
2023/02/03 07:21:07;;;;;;;22.73;3.25;;;9.20;99.90;;;;;;5034830;28;20117;-90
2023/02/03 07:23:32;;;;;;;19.42;2.97;;;9.20;99.90;;;;;;5034481;28;20477;-92
2023/02/03 07:26:03;;;;;;;15.38;2.85;;;9.20;99.90;;;;;;5033074;28;20552;-93
2023/02/03 07:28:30;;;;;;;19.73;3.10;;;9.20;99.90;;;;;;5033278;28;20045;-92
2023/02/03 07:31:04;;;;;;;23.10;3.13;;;9.20;99.90;;;;;;5035969;28;20041;-93
2023/02/03 07:33:30;;;;;;;;;;;9.20;99.90;;;;;;5034152;28;20067;-94
2023/02/03 07:35:57;;;;;;;17.55;3.38;;;9.10;99.90;;;;;;5033660;28;19982;-92
2023/02/03 07:38:24;;;;;;;21.70;3.40;;;9.10;99.90;;;;;;5034758;28;20152;-96
2023/02/03 07:40:49;;;;;;;20.42;3.30;;;9.20;99.90;;;;;;5026016;28;20393;-96
2023/02/03 07:43:24;;;;;;;17.27;3.20;;;9.20;99.90;;;;;;5035529;28;20049;-96
2023/02/03 07:45:49;;;;;;;19.60;3.35;;;9.20;99.90;;;;;;5033206;28;20138;-96
2023/02/03 07:48:15;;;;;;;14.77;2.80;;;9.20;99.90;;;;;;5024330;28;20077;-96
2023/02/03 07:50:44;;;;;;;13.95;3.03;;;9.20;99.90;;;;;;5038982;28;20033;-95
2023/02/03 07:56:53;;;;;;;20.70;3.25;;;9.10;99.90;;;;;;5074449;22;20044;-94
2023/02/03 07:59:29;;;;;;;19.13;3.25;;;9.20;99.90;;;;;;5050655;28;20084;-96
2023/02/03 08:02:01;;;;;;;18.27;3.15;;;9.20;99.90;;;;;;5036519;28;20049;-95
2023/02/03 08:04:29;;;;;;;16.35;3.80;;;9.20;99.90;;;;;;5080215;22;20080;-92
2023/02/03 08:07:01;;;;;;;18.25;3.22;;;9.20;99.90;;;;;;5073310;28;20045;-94
2023/02/03 08:09:41;;;;;;;16.48;3.25;;;9.20;99.90;;;;;;5054916;28;20511;-95
2023/02/03 08:12:07;;;;;;;23.05;3.88;;;9.10;99.90;;;;;;5053335;28;20045;-95
2023/02/03 08:14:36;;;;;;;19.95;3.67;;;9.10;99.90;;;;;;5109077;23;20138;-95
2023/02/03 08:17:02;;;;;;;17.23;3.00;;;9.10;99.90;;;;;;5089884;28;20072;-93
2023/02/03 08:19:36;;;;;;;21.35;3.10;;;9.20;99.90;;;;;;5074157;28;20076;-94
2023/02/03 08:22:02;;;;;;;19.23;3.28;;;9.10;99.90;;;;;;5082390;28;20070;-94
2023/02/03 08:24:36;;;;;;;19.58;3.22;;;9.10;99.90;;;;;;5096195;28;20407;-96
2023/02/03 08:27:02;;;;;;;23.02;3.22;;;9.10;99.90;;;;;;5101705;28;20037;-96
2023/02/03 08:29:33;;;;;;;20.77;4.05;;;9.10;99.90;;;;;;5306478;22;20162;-94
2023/02/03 08:32:12;;;;;;;21.63;3.80;;;9.10;99.90;;;;;;5049980;28;20041;-95
2023/02/03 08:35:05;;;;;;;21.55;3.10;;;9.20;99.90;;;;;;5052303;28;20052;-93
2023/02/03 08:40:43;;;;;;;22.20;3.20;;;9.10;99.90;;;;;;5014901;22;20053;-96
2023/02/03 08:43:10;;;;;;;20.10;3.33;;;9.20;99.90;;;;;;5034247;28;20042;-96
2023/02/03 08:45:35;;;;;;;17.23;3.22;;;9.20;99.90;;;;;;5029128;28;20033;-96
2023/02/03 08:48:11;;;;;;;22.05;3.53;;;9.20;99.90;;;;;;5038077;28;20104;-94
2023/02/03 08:50:41;;;;;;;22.85;3.50;;;9.10;99.90;;;;;;5036130;28;20045;-96
2023/02/03 08:53:11;;;;;;;29.45;3.90;;;9.20;99.90;;;;;;5035822;28;20086;-95
2023/02/03 08:55:40;;;;;;;23.13;3.83;;;9.10;99.90;;;;;;5041424;28;20045;-95
2023/02/03 08:58:12;;;;;;;21.70;3.65;;;9.20;99.90;;;;;;5044144;28;20416;-96
2023/02/03 09:03:47;;;;;;;27.15;3.72;;;9.10;99.90;;;;;;5037574;28;20530;-95
2023/02/03 09:06:23;;;;;;;29.52;3.50;;;9.10;99.90;;;;;;5075152;22;20061;-95
2023/02/03 09:09:07;;;;;;;23.20;3.47;;;9.10;99.90;;;;;;5076098;28;20041;-93
2023/02/03 09:11:32;;;;;;;26.95;4.00;;;9.10;99.90;;;;;;5058938;28;20067;-94
2023/02/03 09:13:59;;;;;;;20.65;3.80;;;9.20;99.90;;;;;;5058307;28;20041;-94
2023/02/03 09:16:25;;;;;;;21.90;3.95;;;9.10;99.90;;;;;;5317052;22;20078;-94
2023/02/03 09:18:56;;;;;;;29.27;4.82;;;9.10;99.90;;;;;;5023532;28;20070;-95
2023/02/03 09:21:28;;;;;;;26.90;3.90;;;9.10;99.90;;;;;;4998556;28;20379;-94
2023/02/03 09:24:03;;;;;;;23.75;3.92;;;9.10;99.90;;;;;;4997554;28;20041;-93
2023/02/03 09:26:29;;;;;;;23.50;3.85;;;9.10;99.90;;;;;;4999884;28;20054;-94
2023/02/03 09:29:10;;;;;;;22.17;3.90;;;9.20;99.90;;;;;;5014981;28;20046;-95
2023/02/03 09:34:58;;;;;;;22.27;4.20;;;9.20;99.90;;;;;;5013149;28;20049;-96
2023/02/03 09:37:36;;;;;;;27.73;4.60;;;9.20;99.90;;;;;;5016579;28;20389;-95
2023/02/03 09:40:02;;;;;;;24.38;3.88;;;9.20;99.90;;;;;;5028904;28;20149;-95
2023/02/03 09:43:02;;;;;;;31.77;4.55;;;9.20;99.90;;;;;;5001255;28;20069;-96
2023/02/03 09:45:39;;;;;;;25.83;4.32;;;9.20;99.90;;;;;;5016452;28;20045;-96
2023/02/03 09:48:28;;;;;;;22.75;4.40;;;9.20;99.90;;;;;;5039722;28;20060;-96
2023/02/03 09:50:57;;;;;;;26.50;3.95;;;9.20;99.90;;;;;;5020948;28;20042;-96
2023/02/03 09:53:46;;;;;;;29.52;4.28;;;9.20;99.90;;;;;;4999463;28;20045;-96
2023/02/03 09:56:35;;;;;;;27.23;4.55;;;9.20;99.90;;;;;;5003045;28;20060;-96
2023/02/03 09:59:41;;;;;;;31.05;4.53;;;9.20;99.90;;;;;;5005288;28;20101;-96
2023/02/03 10:02:59;;;;;;;31.75;5.00;;;9.20;99.90;;;;;;5011370;28;20037;-96
2023/02/03 10:09:34;;;;;;;34.63;4.88;;;9.20;99.90;;;;;;4947032;29;20496;-96
2023/02/03 10:12:35;;;;;;;31.08;4.80;;;9.20;99.90;;;;;;4940673;29;20071;-96
2023/02/03 10:15:23;;;;;;;29.27;4.57;;;9.20;99.90;;;;;;4941415;29;20608;-96
2023/02/03 10:18:56;;;;;;;31.33;4.57;;;9.30;99.90;;;;;;4960462;28;20059;-96
2023/02/03 10:22:01;;;;;;;30.38;4.70;;;9.30;99.90;;;;;;4941332;29;20055;-96
2023/02/03 10:25:32;;;;;;;27.08;4.53;;;9.30;99.90;;;;;;4925334;29;20054;-96
2023/02/03 10:28:08;;;;;;;32.05;4.68;;;9.30;99.90;;;;;;4941849;29;20071;-96
2023/02/03 10:31:07;;;;;;;28.55;5.03;;;9.30;99.90;;;;;;4953336;28;20050;-95
2023/02/03 10:33:33;;;;;;;31.08;4.82;;;9.30;99.90;;;;;;5028419;23;20045;-93
2023/02/03 10:36:34;;;;;;;33.03;5.05;;;9.40;99.90;;;;;;5056650;28;20109;-94
2023/02/03 10:39:28;;;;;;;32.78;4.63;;;9.30;99.90;;;;;;5042572;28;20056;-96
2023/02/03 10:42:07;;;;;;;30.95;4.88;;;9.40;99.90;;;;;;5067336;28;20395;-95
2023/02/03 10:45:04;;;;;;;29.88;4.80;;;9.40;99.90;;;;;;5077083;28;20060;-94
2023/02/03 10:47:38;;;;;;;29.92;4.85;;;9.40;99.90;;;;;;5064914;28;20155;-95
2023/02/03 10:50:15;;;;;;;37.97;5.53;;;9.40;99.90;;;;;;5036296;28;20037;-95
2023/02/03 10:52:48;;;;;;;32.90;5.05;;;9.40;99.90;;;;;;5072584;28;20028;-93
2023/02/03 10:55:38;;;;;;;31.73;5.50;;;9.40;99.90;;;;;;5043293;28;20033;-95
2023/02/03 10:58:43;;;;;;;33.05;5.32;;;9.40;99.90;;;;;;5415910;23;20066;-96
2023/02/03 11:01:49;;;;;;;38.83;5.60;;;9.40;99.90;;;;;;5052491;28;20049;-94
2023/02/03 11:04:36;;;;;;;36.60;5.70;;;9.50;99.90;;;;;;5051978;28;20056;-94
2023/02/03 11:09:41;;;;;;;31.20;5.82;;;9.40;99.90;;;;;;5397813;22;20041;-94
2023/02/03 11:12:16;;;;;;;38.45;5.43;;;9.50;99.90;;;;;;5021406;28;20049;-94
2023/02/03 11:14:50;;;;;;;33.83;5.63;;;9.50;99.90;;;;;;5024996;28;20053;-94
2023/02/03 11:20:38;;;;;;;34.15;5.85;;;9.50;99.90;;;;;;5029139;28;20041;-95
2023/02/03 11:23:04;;;;;;;40.97;6.07;;;9.50;99.90;;;;;;5029514;28;20041;-94
2023/02/03 11:25:35;;;;;;;41.30;5.32;;;9.50;99.90;;;;;;5024046;28;20115;-95
2023/02/03 11:28:16;;;;;;;40.88;6.38;;;9.50;99.90;;;;;;5023369;28;20041;-94
2023/02/03 11:30:42;;;;;;;43.30;6.13;;;9.50;99.90;;;;;;5035919;28;20044;-91
2023/02/03 11:33:51;;;;;;;;;;;;;;;;;;;;;
2023/02/03 11:43:20;;;;;;;43.20;6.07;;;9.50;99.90;;;;;;5062035;28;20083;-95
2023/02/03 11:46:28;;;;;;;37.05;6.03;;;9.40;99.90;;;;;;5066439;28;20120;-94
2023/02/03 11:49:32;;;;;;;43.13;6.70;;;9.40;99.90;;;;;;5067434;28;20451;-94
2023/02/03 11:55:02;;;;;;;34.13;6.13;;;9.40;99.90;;;;;;5046064;22;20041;-94
2023/02/03 11:58:22;;;;;;;36.47;5.63;;;9.40;99.90;;;;;;5020781;28;20072;-95
2023/02/03 12:01:19;;;;;;;33.90;5.82;;;9.40;99.90;;;;;;5043470;28;20030;-93
2023/02/03 12:04:13;;;;;;;34.35;5.72;;;9.40;99.90;;;;;;5035647;28;20128;-95
2023/02/03 12:07:24;;;;;;;47.33;7.43;;;9.40;99.90;;;;;;5012666;28;20080;-93
2023/02/03 12:10:26;;;;;;;38.30;6.43;;;9.40;99.90;;;;;;5010500;28;20130;-95
2023/02/03 12:15:50;;;;;;;35.40;5.95;;;9.40;99.90;;;;;;5140800;22;20412;-92
2023/02/03 12:19:02;;;;;;;38.22;5.85;;;9.30;99.90;;;;;;5077298;28;20045;-94
2023/02/03 12:25:36;;;;;;;36.45;5.45;;;9.40;99.90;;;;;;5073102;28;20048;-94
2023/02/03 12:28:53;;;;;;;36.58;6.03;;;9.40;99.90;;;;;;4994574;28;20038;-95
2023/02/03 12:35:33;;;;;;;40.53;6.07;;;9.30;99.90;;;;;;4995390;28;20438;-95
2023/02/03 12:42:09;;;;;;;30.45;6.03;;;9.30;99.90;;;;;;4978140;28;20051;-95
2023/02/03 13:43:30;;;;;;;46.00;7.10;;;9.20;99.90;;;;;;4865282;29;20145;-94
2023/02/03 13:46:36;;;;;;;39.83;6.80;;;9.20;99.80;;;;;;4869515;29;20087;-91
2023/02/03 13:49:33;;;;;;;43.40;7.18;;;9.20;99.80;;;;;;4882711;29;20049;-95
2023/02/03 13:51:59;;;;;;;34.33;5.95;;;9.20;99.60;;;;;;4878398;29;20034;-95
2023/02/03 13:55:04;;;;;;;38.95;6.35;;;9.30;99.70;;;;;;4852474;29;20145;-94
2023/02/03 13:57:55;;;;;;;32.28;5.95;;;9.30;99.00;;;;;;4844868;29;20058;-95
2023/02/03 14:00:45;;;;;;;29.17;5.82;;;9.30;99.10;;;;;;4844468;29;20461;-93
2023/02/03 14:03:40;;;;;;;31.02;5.68;;;9.30;98.70;;;;;;4818756;29;20065;-94
2023/02/03 14:16:32;;;;;;;36.40;5.40;;;9.20;98.30;;;;;;4820116;29;20503;-95
2023/02/03 14:19:32;;;;;;;30.30;4.45;;;9.20;98.30;;;;;;4806253;29;20121;-94
2023/02/03 14:22:31;;;;;;;26.15;5.05;;;9.20;98.20;;;;;;4841081;29;20084;-96
2023/02/03 14:25:30;;;;;;;;;;;;;;;;;;;;;
2023/02/03 14:28:56;;;;;;;29.23;5.80;;;9.20;98.80;;;;;;4883347;29;20056;-94
2023/02/03 14:35:42;;;;;;;24.65;4.25;;;9.20;98.30;;;;;;4840497;29;20061;-92
2023/02/03 14:38:18;;;;;;;27.63;5.00;;;9.20;98.20;;;;;;4800198;29;20058;-95
2023/02/03 14:51:40;;;;;;;25.50;4.65;;;9.10;98.20;;;;;;4813138;29;20133;-92
2023/02/03 14:57:28;;;;;;;34.05;5.45;;;9.10;98.20;;;;;;5206172;23;20644;-93
2023/02/03 15:00:18;;;;;;;31.55;5.20;;;9.10;97.90;;;;;;4900468;29;20063;-93
2023/02/03 15:03:09;;;;;;;26.10;4.22;;;9.10;98.10;;;;;;4899172;29;20080;-93
2023/02/03 15:05:37;;;;;;;32.13;4.80;;;9.10;97.90;;;;;;4869633;29;20041;-93
2023/02/03 15:08:03;;;;;;;24.85;4.68;;;9.10;98.10;;;;;;4881699;29;20156;-93
2023/02/03 15:11:14;;;;;;;27.85;4.10;;;9.10;98.20;;;;;;4892745;29;20139;-92
2023/02/03 15:17:29;;;;;;;24.92;4.03;;;9.10;97.90;;;;;;4899698;29;20041;-93
2023/02/03 15:23:51;;;;;;;22.95;4.40;;;9.10;98.00;;;;;;4892382;29;20552;-92
2023/02/03 15:26:22;;;;;;;21.80;3.75;;;9.00;97.70;;;;;;4886716;29;20052;-91
2023/02/03 15:30:04;;;;;;;24.02;4.18;;;9.10;97.80;;;;;;4941627;23;20049;-91
2023/02/03 15:32:39;;;;;;;22.65;4.05;;;9.00;97.50;;;;;;4877882;29;20067;-93
2023/02/03 15:35:08;;;;;;;29.42;4.38;;;9.00;97.50;;;;;;4879940;29;20049;-92
2023/02/03 15:40:53;;;;;;;25.23;4.07;;;9.00;97.40;;;;;;4890993;29;20057;-92
2023/02/03 15:43:55;;;;;;;25.73;4.13;;;9.00;97.70;;;;;;4856784;29;20136;-92
2023/02/03 15:47:01;;;;;;;20.92;4.93;;;9.00;97.50;;;;;;4864168;29;20041;-92
2023/02/03 15:49:43;;;;;;;19.60;3.60;;;8.90;97.10;;;;;;4859218;29;20512;-92
2023/02/03 15:52:39;;;;;;;22.85;3.92;;;8.90;97.20;;;;;;4879893;29;20060;-92
2023/02/03 15:55:37;;;;;;;21.13;3.97;;;8.90;97.60;;;;;;4863299;29;20050;-93
2023/02/03 15:58:21;;;;;;;27.92;4.97;;;8.90;97.70;;;;;;4852778;29;20060;-92
2023/02/03 16:00:53;;;;;;;23.40;4.43;;;8.80;97.80;;;;;;4880752;29;20085;-93
2023/02/03 16:03:51;;;;;;;29.65;4.63;;;8.90;98.00;;;;;;4864429;29;20056;-94
2023/02/03 16:10:38;;;;;;;31.48;5.40;;;8.80;98.00;;;;;;4881334;29;20053;-92
2023/02/03 16:13:34;;;;;;;28.20;4.97;;;8.80;97.80;;;;;;4867643;29;20100;-93